createdAt,value
2022-10-09T00:01:32.420Z,5.10
2022-10-09T00:04:01.485Z,4.80
2022-10-09T00:06:33.969Z,5.10
2022-10-09T00:09:04.147Z,4.90
2022-10-09T00:11:34.196Z,5.00
2022-10-09T00:14:03.865Z,5.50
2022-10-09T00:16:32.770Z,5.10
2022-10-09T00:19:01.423Z,5.40
2022-10-09T00:21:33.669Z,5.00
2022-10-09T00:24:03.846Z,5.10
2022-10-09T00:26:32.851Z,5.60
2022-10-09T00:29:01.486Z,5.40
2022-10-09T00:31:30.334Z,4.90
2022-10-09T00:33:58.853Z,4.90
2022-10-09T00:36:27.651Z,5.00
2022-10-09T00:38:56.539Z,6.30
2022-10-09T00:41:31.880Z,5.80
2022-10-09T00:44:42.544Z,5.90
2022-10-09T00:47:40.710Z,6.00
2022-10-09T00:50:39.713Z,6.40
2022-10-09T00:53:10.983Z,5.60
2022-10-09T00:55:40.150Z,5.70
2022-10-09T00:58:09.756Z,5.80
2022-10-09T01:00:38.030Z,5.30
2022-10-09T01:03:06.663Z,6.20
2022-10-09T01:05:43.991Z,5.30
2022-10-09T01:08:25.407Z,4.70
2022-10-09T01:11:09.944Z,5.50
2022-10-09T01:13:55.021Z,5.30
2022-10-09T01:16:29.794Z,4.90
2022-10-09T01:19:53.437Z,5.40
2022-10-09T01:22:36.482Z,5.30
2022-10-09T01:25:33.488Z,5.20
2022-10-09T01:28:04.609Z,5.70
2022-10-09T01:30:35.421Z,5.80
2022-10-09T01:33:05.668Z,5.40
2022-10-09T01:35:35.037Z,5.40
2022-10-09T01:38:04.758Z,5.70
2022-10-09T01:40:33.822Z,5.60
2022-10-09T01:43:02.376Z,5.90
2022-10-09T01:45:45.882Z,5.90
2022-10-09T01:48:25.250Z,5.40
2022-10-09T01:51:02.662Z,5.30
2022-10-09T01:53:33.683Z,5.80
2022-10-09T01:56:24.685Z,5.40
2022-10-09T01:59:01.353Z,5.30
2022-10-09T02:01:34.357Z,5.20
2022-10-09T02:04:08.580Z,5.10
2022-10-09T02:06:40.477Z,5.20
2022-10-09T02:09:15.759Z,5.20
2022-10-09T02:11:48.641Z,5.20
2022-10-09T02:14:17.144Z,4.80
2022-10-09T02:17:00.349Z,5.00
2022-10-09T02:19:37.231Z,4.90
2022-10-09T02:22:18.617Z,5.80
2022-10-09T02:24:47.776Z,8.70
2022-10-09T02:27:18.937Z,8.60
2022-10-09T02:29:48.457Z,7.10
2022-10-09T02:32:16.959Z,6.10
2022-10-09T02:34:45.630Z,5.80
2022-10-09T02:37:15.115Z,5.60
2022-10-09T02:39:44.020Z,6.40
2022-10-09T02:42:12.315Z,5.70
2022-10-09T02:44:40.680Z,5.90
2022-10-09T02:47:09.118Z,6.90
2022-10-09T02:49:37.731Z,10.00
2022-10-09T02:52:06.134Z,10.10
2022-10-09T02:54:34.515Z,9.90
2022-10-09T02:57:03.077Z,11.00
2022-10-09T02:59:32.402Z,9.20
2022-10-09T03:02:00.886Z,9.80
2022-10-09T03:04:29.368Z,10.00
2022-10-09T03:06:58.760Z,11.60
2022-10-09T03:12:01.967Z,12.20
2022-10-09T03:14:30.347Z,12.10
2022-10-09T03:16:58.827Z,11.60
2022-10-09T03:19:27.206Z,10.60
2022-10-09T03:21:55.461Z,12.10
2022-10-09T03:24:23.898Z,11.60
2022-10-09T03:26:52.545Z,12.40
2022-10-09T03:29:21.046Z,11.60
2022-10-09T03:31:52.870Z,11.10
2022-10-09T03:34:21.596Z,11.10
2022-10-09T03:36:50.476Z,10.80
2022-10-09T03:39:18.840Z,11.80
2022-10-09T03:41:47.248Z,11.10
2022-10-09T03:44:15.494Z,10.70
2022-10-09T03:46:43.835Z,8.80
2022-10-09T03:49:12.459Z,9.20
2022-10-09T03:51:40.708Z,8.70
2022-10-09T03:54:09.215Z,9.00
2022-10-09T03:56:37.578Z,8.50
2022-10-09T03:59:07.809Z,8.70
2022-10-09T04:01:36.709Z,9.50
2022-10-09T04:04:04.975Z,9.00
2022-10-09T04:06:33.352Z,7.90
2022-10-09T04:09:01.941Z,7.70
2022-10-09T04:11:30.308Z,7.70
2022-10-09T04:13:58.754Z,8.70
2022-10-09T04:16:27.245Z,10.10
2022-10-09T04:18:55.772Z,8.90
2022-10-09T04:21:24.139Z,10.50
2022-10-09T04:23:53.016Z,9.80
2022-10-09T04:26:21.490Z,10.00
2022-10-09T04:28:50.027Z,9.10
2022-10-09T04:31:18.507Z,9.10
2022-10-09T04:33:47.029Z,9.00
2022-10-09T04:36:15.620Z,9.10
2022-10-09T04:38:43.900Z,9.50
2022-10-09T04:41:12.239Z,9.30
2022-10-09T04:43:42.517Z,9.60
2022-10-09T04:46:14.306Z,9.60
2022-10-09T04:48:46.423Z,8.90
2022-10-09T04:51:16.783Z,8.60
2022-10-09T04:53:45.692Z,8.60
2022-10-09T04:56:18.627Z,8.50
2022-10-09T04:58:48.224Z,8.50
2022-10-09T05:03:56.545Z,7.80
2022-10-09T05:06:25.350Z,8.60
2022-10-09T05:08:54.517Z,9.10
2022-10-09T05:13:56.166Z,9.20
2022-10-09T05:16:28.455Z,8.80
2022-10-09T05:18:59.030Z,8.80
2022-10-09T05:21:28.894Z,9.60
2022-10-09T05:23:58.068Z,9.20
2022-10-09T05:26:27.867Z,8.30
2022-10-09T05:28:56.128Z,10.20
2022-10-09T05:31:28.133Z,9.10
2022-10-09T05:34:00.334Z,9.30
2022-10-09T05:36:29.111Z,9.90
2022-10-09T05:38:58.376Z,9.60
2022-10-09T05:41:28.298Z,10.20
2022-10-09T05:44:02.352Z,9.90
2022-10-09T05:46:31.240Z,10.80
2022-10-09T05:49:05.706Z,11.00
2022-10-09T05:51:37.734Z,9.20
2022-10-09T05:54:07.149Z,10.10
2022-10-09T05:56:39.508Z,9.50
2022-10-09T05:59:15.345Z,9.30
2022-10-09T06:01:46.930Z,9.50
2022-10-09T06:04:18.982Z,9.20
2022-10-09T06:06:49.626Z,9.50
2022-10-09T06:09:23.150Z,10.60
2022-10-09T06:11:53.981Z,10.10
2022-10-09T06:14:23.457Z,10.70
2022-10-09T06:16:51.901Z,11.20
2022-10-09T06:19:21.043Z,10.00
2022-10-09T06:21:49.488Z,11.50
2022-10-09T06:24:28.852Z,10.40
2022-10-09T06:26:58.464Z,11.70
2022-10-09T06:29:26.925Z,10.60
2022-10-09T06:31:55.536Z,10.40
2022-10-09T06:34:25.061Z,10.50
2022-10-09T06:36:53.417Z,9.70
2022-10-09T06:39:22.795Z,9.60
2022-10-09T06:41:51.172Z,9.10
2022-10-09T06:44:31.354Z,9.70
2022-10-09T06:46:59.825Z,9.90
2022-10-09T06:49:28.184Z,9.50
2022-10-09T06:51:56.479Z,9.20
2022-10-09T06:54:24.897Z,9.40
2022-10-09T06:56:55.898Z,8.80
2022-10-09T06:59:24.138Z,8.60
2022-10-09T07:01:52.789Z,8.20
2022-10-09T07:04:21.832Z,7.50
2022-10-09T07:06:50.126Z,8.00
2022-10-09T07:09:18.597Z,8.10
2022-10-09T07:11:49.527Z,7.50
2022-10-09T07:14:18.658Z,8.60
2022-10-09T07:16:49.273Z,7.20
2022-10-09T07:19:19.374Z,6.90
2022-10-09T07:21:49.871Z,6.70
2022-10-09T07:24:20.751Z,6.10
2022-10-09T07:26:49.753Z,8.00
2022-10-09T07:29:20.042Z,7.00
2022-10-09T07:31:50.044Z,6.40
2022-10-09T07:34:18.465Z,6.80
2022-10-09T07:36:46.792Z,6.70
2022-10-09T07:39:19.523Z,6.80
2022-10-09T07:41:51.926Z,7.10
2022-10-09T07:44:20.177Z,6.90
2022-10-09T07:46:51.681Z,6.60
2022-10-09T07:49:20.366Z,9.60
2022-10-09T07:51:48.663Z,10.00
2022-10-09T07:54:17.046Z,10.00
2022-10-09T07:56:45.338Z,9.60
2022-10-09T07:59:16.161Z,7.70
2022-10-09T08:01:44.762Z,8.00
2022-10-09T08:04:13.140Z,7.00
2022-10-09T08:06:41.831Z,8.20
2022-10-09T08:09:10.323Z,7.50
2022-10-09T08:11:41.915Z,6.70
2022-10-09T08:14:18.183Z,6.30
2022-10-09T08:16:48.651Z,5.60
2022-10-09T08:21:45.590Z,5.20
2022-10-09T08:24:14.203Z,6.30
2022-10-09T08:26:44.306Z,6.80
2022-10-09T08:29:14.195Z,6.50
2022-10-09T08:31:42.740Z,6.60
2022-10-09T08:34:12.253Z,6.20
2022-10-09T08:39:08.753Z,5.80
2022-10-09T08:41:52.362Z,5.50
2022-10-09T08:44:40.106Z,5.50
2022-10-09T08:47:37.142Z,4.90
2022-10-09T08:50:23.339Z,5.20
2022-10-09T08:53:03.730Z,5.00
2022-10-09T08:55:41.678Z,5.10
2022-10-09T08:58:15.855Z,4.50
2022-10-09T09:00:50.540Z,4.80
2022-10-09T09:03:36.812Z,4.70
2022-10-09T09:06:33.012Z,5.50
2022-10-09T09:09:10.356Z,4.90
2022-10-09T09:12:15.169Z,5.20
2022-10-09T09:15:22.031Z,4.80
2022-10-09T09:18:04.541Z,4.20
2022-10-09T09:20:56.646Z,4.40
2022-10-09T09:23:40.741Z,4.40
2022-10-09T09:26:27.508Z,4.30
2022-10-09T09:29:02.656Z,5.20
2022-10-09T09:31:37.351Z,3.90
2022-10-09T09:34:44.521Z,4.10
2022-10-09T09:37:13.747Z,4.40
2022-10-09T09:42:31.702Z,4.30
2022-10-09T09:45:04.963Z,4.00
2022-10-09T09:47:47.017Z,4.00
2022-10-09T09:50:42.230Z,4.00
2022-10-09T09:53:37.014Z,3.50
2022-10-09T09:56:06.054Z,3.80
2022-10-09T09:58:38.717Z,4.40
2022-10-09T10:01:21.930Z,3.90
2022-10-09T10:03:54.715Z,4.20
2022-10-09T10:06:44.733Z,4.90
2022-10-09T10:09:19.298Z,4.00
2022-10-09T10:12:03.611Z,4.70
2022-10-09T10:14:34.262Z,5.90
2022-10-09T10:17:02.683Z,5.90
2022-10-09T10:19:35.753Z,4.90
2022-10-09T10:22:21.938Z,5.10
2022-10-09T10:24:52.597Z,6.50
2022-10-09T10:27:41.014Z,6.50
2022-10-09T10:30:16.059Z,7.10
2022-10-09T10:33:17.397Z,7.40
2022-10-09T10:35:49.787Z,8.00
2022-10-09T10:38:31.263Z,9.00
2022-10-09T10:41:36.705Z,8.40
2022-10-09T10:44:26.297Z,8.40
2022-10-09T10:47:04.021Z,9.50
2022-10-09T10:49:33.927Z,9.00
2022-10-09T10:52:23.465Z,10.20
2022-10-09T10:55:11.640Z,9.60
2022-10-09T10:58:06.405Z,10.80
2022-10-09T11:00:44.135Z,9.50
2022-10-09T11:03:52.840Z,11.00
2022-10-09T11:06:28.994Z,9.50
2022-10-09T11:09:07.369Z,9.80
2022-10-09T11:11:50.745Z,10.40
2022-10-09T11:14:43.026Z,10.40
2022-10-09T11:17:26.818Z,9.60
2022-10-09T11:20:27.770Z,9.10
2022-10-09T11:23:42.043Z,10.30
2022-10-09T11:26:36.955Z,10.90
2022-10-09T11:29:18.394Z,10.80
2022-10-09T11:31:57.185Z,10.50
2022-10-09T11:34:33.927Z,10.70
2022-10-09T11:37:07.218Z,10.50
2022-10-09T11:39:37.683Z,10.30
2022-10-09T11:42:07.177Z,11.20
2022-10-09T11:47:30.121Z,9.80
2022-10-09T11:50:37.786Z,10.60
2022-10-09T11:53:19.776Z,10.80
2022-10-09T11:55:48.774Z,11.20
2022-10-09T11:58:20.241Z,11.90
2022-10-09T12:00:55.452Z,11.80
2022-10-09T12:03:34.287Z,12.80
2022-10-09T12:06:17.116Z,12.20
2022-10-09T12:09:06.272Z,11.90
2022-10-09T12:14:08.487Z,13.20
2022-10-09T12:16:46.086Z,13.40
2022-10-09T12:19:31.543Z,12.90
2022-10-09T12:22:01.161Z,12.60
2022-10-09T12:24:48.371Z,12.20
2022-10-09T12:27:26.986Z,12.00
2022-10-09T12:30:05.321Z,12.90
2022-10-09T12:32:39.361Z,12.00
2022-10-09T12:35:47.986Z,11.70
2022-10-09T12:38:34.229Z,11.50
2022-10-09T12:41:07.273Z,10.40
2022-10-09T12:43:36.545Z,10.60
2022-10-09T12:48:40.646Z,9.80
2022-10-09T12:51:17.407Z,10.00
2022-10-09T12:53:49.199Z,10.40
2022-10-09T12:56:24.734Z,9.90
2022-10-09T12:58:53.920Z,10.40
2022-10-09T13:01:22.820Z,10.00
2022-10-09T13:04:05.885Z,9.70
2022-10-09T13:06:48.140Z,9.60
2022-10-09T13:09:35.152Z,9.60
2022-10-09T13:12:27.756Z,9.00
2022-10-09T13:15:06.210Z,8.70
2022-10-09T13:17:41.803Z,9.20
2022-10-09T13:20:13.014Z,7.60
2022-10-09T13:22:42.344Z,7.60
2022-10-09T13:25:10.630Z,7.00
2022-10-09T13:27:40.130Z,6.10
2022-10-09T13:30:12.156Z,5.70
2022-10-09T13:32:40.530Z,6.20
2022-10-09T13:35:09.543Z,6.10
2022-10-09T13:37:37.813Z,6.50
2022-10-09T13:40:07.018Z,6.90
2022-10-09T13:42:37.352Z,7.00
2022-10-09T13:45:06.819Z,6.40
2022-10-09T13:47:35.094Z,7.30
2022-10-09T13:50:04.551Z,6.90
2022-10-09T13:52:32.909Z,6.60
2022-10-09T13:55:01.346Z,7.20
2022-10-09T13:57:29.740Z,7.40
2022-10-09T13:59:57.994Z,7.80
2022-10-09T14:02:26.589Z,8.60
2022-10-09T14:04:54.955Z,8.20
2022-10-09T14:07:23.651Z,9.50
2022-10-09T14:09:52.040Z,8.80
2022-10-09T14:12:20.306Z,9.20
2022-10-09T14:14:48.772Z,8.70
2022-10-09T14:17:16.883Z,10.70
2022-10-09T14:19:45.249Z,10.40
2022-10-09T14:22:13.701Z,11.70
2022-10-09T14:24:42.698Z,11.40
2022-10-09T14:27:11.210Z,12.50
2022-10-09T14:29:39.785Z,11.80
2022-10-09T14:32:08.178Z,11.70
2022-10-09T14:34:36.402Z,12.70
2022-10-09T14:37:13.610Z,12.90
2022-10-09T14:39:47.634Z,12.20
2022-10-09T14:42:15.931Z,12.00
2022-10-09T14:44:44.302Z,11.50
2022-10-09T14:47:12.644Z,12.00
2022-10-09T14:49:40.944Z,11.90
2022-10-09T14:52:09.182Z,11.90
2022-10-09T14:54:37.838Z,12.90
2022-10-09T14:57:06.286Z,12.00
2022-10-09T14:59:34.548Z,11.80
2022-10-09T15:02:02.936Z,12.40
2022-10-09T15:04:31.418Z,12.00
2022-10-09T15:06:59.900Z,11.90
2022-10-09T15:09:28.142Z,12.50
2022-10-09T15:11:57.361Z,12.70
2022-10-09T15:14:25.858Z,13.40
2022-10-09T15:16:54.117Z,13.30
2022-10-09T15:19:22.372Z,13.50
2022-10-09T15:21:51.080Z,14.00
2022-10-09T15:24:19.338Z,13.00
2022-10-09T15:26:47.643Z,13.20
2022-10-09T15:29:16.013Z,13.80
2022-10-09T15:31:44.281Z,13.50
2022-10-09T15:34:18.718Z,13.70
2022-10-09T15:36:47.342Z,13.60
2022-10-09T15:39:15.743Z,13.90
2022-10-09T15:41:44.375Z,14.60
2022-10-09T15:44:20.822Z,16.40
2022-10-09T15:46:50.279Z,14.30
2022-10-09T15:49:18.776Z,12.80
2022-10-09T15:51:47.100Z,13.40
2022-10-09T15:54:15.761Z,13.30
2022-10-09T15:56:44.058Z,15.30
2022-10-09T15:59:14.277Z,14.30
2022-10-09T16:01:44.003Z,13.40
2022-10-09T16:04:12.432Z,14.60
2022-10-09T16:06:40.741Z,14.00
2022-10-09T16:09:09.309Z,12.60
2022-10-09T16:11:37.663Z,13.20
2022-10-09T16:14:06.042Z,13.60
2022-10-09T16:16:34.358Z,13.20
2022-10-09T16:19:05.266Z,13.70
2022-10-09T16:21:34.195Z,13.10
2022-10-09T16:24:02.534Z,13.10
2022-10-09T16:26:30.924Z,12.50
2022-10-09T16:29:00.912Z,12.70
2022-10-09T16:31:35.303Z,12.60
2022-10-09T16:34:07.138Z,13.40
2022-10-09T16:36:35.517Z,11.70
2022-10-09T16:39:04.082Z,10.80
2022-10-09T16:41:32.581Z,12.30
2022-10-09T16:44:03.089Z,10.50
2022-10-09T16:49:15.224Z,10.40
2022-10-09T16:51:44.972Z,9.90
2022-10-09T16:54:13.240Z,9.00
2022-10-09T16:56:41.877Z,9.30
2022-10-09T16:59:13.645Z,8.50
2022-10-09T17:01:46.206Z,9.20
2022-10-09T17:04:15.104Z,8.30
2022-10-09T17:06:44.697Z,8.50
2022-10-09T17:09:14.636Z,7.90
2022-10-09T17:11:43.436Z,9.20
2022-10-09T17:14:12.505Z,8.30
2022-10-09T17:16:43.019Z,7.10
2022-10-09T17:19:11.824Z,7.70
2022-10-09T17:21:40.225Z,7.50
2022-10-09T17:24:09.270Z,8.10
2022-10-09T17:26:37.684Z,7.50
2022-10-09T17:29:06.065Z,7.80
2022-10-09T17:31:35.017Z,7.20
2022-10-09T17:34:05.085Z,6.80
2022-10-09T17:36:37.210Z,7.40
2022-10-09T17:39:08.992Z,6.80
2022-10-09T17:41:37.350Z,7.50
2022-10-09T17:44:06.612Z,8.40
2022-10-09T17:46:34.961Z,7.70
2022-10-09T17:49:04.419Z,8.10
2022-10-09T17:51:37.134Z,7.80
2022-10-09T17:54:13.702Z,7.90
2022-10-09T17:56:43.108Z,7.40
2022-10-09T17:59:12.505Z,7.40
2022-10-09T18:01:40.810Z,7.00
2022-10-09T18:04:15.605Z,8.50
2022-10-09T18:06:44.299Z,8.00
2022-10-09T18:09:12.624Z,8.70
2022-10-09T18:11:40.890Z,8.30
2022-10-09T18:14:10.054Z,7.80
2022-10-09T18:16:39.786Z,8.10
2022-10-09T18:19:13.782Z,6.70
2022-10-09T18:21:45.723Z,7.30
2022-10-09T18:24:15.330Z,7.30
2022-10-09T18:26:44.689Z,8.30
2022-10-09T18:29:13.322Z,8.10
2022-10-09T18:31:41.900Z,8.10
2022-10-09T18:34:11.002Z,7.90
2022-10-09T18:36:39.684Z,7.00
2022-10-09T18:39:12.381Z,6.10
2022-10-09T18:41:41.758Z,6.90
2022-10-09T18:44:17.629Z,6.80
2022-10-09T18:46:55.760Z,6.20
2022-10-09T18:49:30.550Z,6.50
2022-10-09T18:52:02.866Z,6.40
2022-10-09T18:54:31.607Z,6.40
2022-10-09T18:57:00.014Z,6.00
2022-10-09T18:59:29.615Z,6.70
2022-10-09T19:01:57.993Z,6.50
2022-10-09T19:04:26.371Z,6.40
2022-10-09T19:06:55.002Z,5.90
2022-10-09T19:09:23.250Z,5.20
2022-10-09T19:11:52.818Z,5.90
2022-10-09T19:16:49.903Z,5.90
2022-10-09T19:19:19.172Z,6.00
2022-10-09T19:21:47.586Z,6.20
2022-10-09T19:24:15.943Z,6.20
2022-10-09T19:26:44.326Z,5.00
2022-10-09T19:29:12.659Z,5.10
2022-10-09T19:31:41.148Z,4.70
2022-10-09T19:34:09.392Z,4.80
2022-10-09T19:36:37.817Z,5.40
2022-10-09T19:39:08.875Z,5.10
2022-10-09T19:41:39.010Z,5.00
2022-10-09T19:44:07.384Z,5.70
2022-10-09T19:46:40.045Z,6.20
2022-10-09T19:49:09.559Z,6.10
2022-10-09T19:54:08.662Z,6.00
2022-10-09T19:56:38.184Z,5.40
2022-10-09T20:01:40.235Z,5.80
2022-10-09T20:04:10.989Z,6.20
2022-10-09T20:06:41.750Z,6.40
2022-10-09T20:09:12.367Z,6.10
2022-10-09T20:11:41.197Z,6.20
2022-10-09T20:14:10.053Z,6.20
2022-10-09T20:16:39.089Z,5.70
2022-10-09T20:19:07.521Z,5.70
2022-10-09T20:21:35.898Z,6.00
2022-10-09T20:24:06.312Z,6.40
2022-10-09T20:26:36.794Z,6.60
2022-10-09T20:29:07.594Z,6.20
2022-10-09T20:31:35.967Z,5.50
2022-10-09T20:34:04.651Z,6.30
2022-10-09T20:36:35.890Z,6.80
2022-10-09T20:39:08.975Z,6.10
2022-10-09T20:41:40.617Z,5.70
2022-10-09T20:44:11.071Z,5.40
2022-10-09T20:46:40.709Z,5.40
2022-10-09T20:49:14.016Z,5.40
2022-10-09T20:51:42.657Z,5.70
2022-10-09T20:54:17.972Z,5.70
2022-10-09T20:56:47.296Z,5.80
2022-10-09T20:59:16.911Z,4.70
2022-10-09T21:01:45.838Z,6.20
2022-10-09T21:04:15.002Z,5.90
2022-10-09T21:06:43.261Z,5.40
2022-10-09T21:09:11.748Z,4.90
2022-10-09T21:11:41.672Z,4.80
2022-10-09T21:14:10.123Z,4.40
2022-10-09T21:16:38.727Z,5.00
2022-10-09T21:19:07.148Z,5.50
2022-10-09T21:21:35.358Z,5.20
2022-10-09T21:24:04.583Z,4.60
2022-10-09T21:26:36.382Z,5.10
2022-10-09T21:29:05.497Z,5.60
2022-10-09T21:31:34.377Z,4.90
2022-10-09T21:34:02.942Z,4.60
2022-10-09T21:37:08.490Z,5.20
2022-10-09T21:39:31.757Z,4.80
2022-10-09T21:42:00.193Z,4.30
2022-10-09T21:44:28.672Z,4.80
2022-10-09T21:46:57.052Z,5.10
2022-10-09T21:49:28.309Z,4.30
2022-10-09T21:51:57.125Z,5.00
2022-10-09T21:54:25.564Z,4.70
2022-10-09T21:56:53.887Z,4.70
2022-10-09T21:59:22.430Z,4.80
2022-10-09T22:01:50.599Z,4.80
2022-10-09T22:04:19.590Z,5.40
2022-10-09T22:06:47.854Z,4.60
2022-10-09T22:09:16.230Z,4.40
2022-10-09T22:11:45.149Z,4.10
2022-10-09T22:14:14.161Z,3.60
2022-10-09T22:16:42.508Z,4.30
2022-10-09T22:19:10.987Z,4.10
2022-10-09T22:21:39.718Z,3.80
2022-10-09T22:24:08.347Z,4.10
2022-10-09T22:26:36.738Z,4.20
2022-10-09T22:29:05.033Z,3.80
2022-10-09T22:31:33.433Z,3.70
2022-10-09T22:34:02.262Z,3.70
2022-10-09T22:36:33.147Z,3.90
2022-10-09T22:39:05.221Z,3.60
2022-10-09T22:41:34.529Z,3.80
2022-10-09T22:44:06.034Z,3.40
2022-10-09T22:46:41.417Z,3.50
2022-10-09T22:49:14.842Z,2.90
2022-10-09T22:51:44.792Z,3.20
2022-10-09T22:54:14.020Z,3.20
2022-10-09T22:56:45.422Z,3.90
2022-10-09T22:59:18.230Z,3.40
2022-10-09T23:01:57.137Z,3.60
2022-10-09T23:04:25.500Z,3.60
2022-10-09T23:06:59.617Z,3.30
2022-10-09T23:09:31.683Z,3.60
2022-10-09T23:12:00.489Z,3.60
2022-10-09T23:14:29.072Z,3.30
2022-10-09T23:16:57.446Z,3.50
2022-10-09T23:19:25.829Z,3.10
2022-10-09T23:21:54.103Z,3.00
2022-10-09T23:24:22.486Z,3.10
2022-10-09T23:26:52.087Z,3.50
2022-10-09T23:31:53.601Z,3.70
2022-10-09T23:34:21.940Z,3.80
2022-10-09T23:36:50.209Z,3.70
2022-10-09T23:39:19.816Z,3.60
2022-10-09T23:41:48.057Z,4.70
2022-10-09T23:44:20.082Z,3.90
2022-10-09T23:46:52.019Z,3.90
2022-10-09T23:49:20.489Z,3.40
2022-10-09T23:51:48.861Z,4.10
2022-10-09T23:54:17.245Z,3.90
2022-10-09T23:56:45.825Z,4.00
2022-10-09T23:59:14.114Z,3.70
